sensor_id;sensor_type;location;lat;lon;timestamp;temperature;humidity
9385;DHT22;4732;49.340;10.886;2023-09-30T03:04:29;16.40;99.90
9385;DHT22;4732;49.340;10.886;2023-09-30T03:06:54;16.20;99.90
9385;DHT22;4732;49.340;10.886;2023-09-30T03:09:23;16.20;99.90
9385;DHT22;4732;49.340;10.886;2023-09-30T03:11:48;16.10;99.90
9385;DHT22;4732;49.340;10.886;2023-09-30T03:14:15;15.80;99.90
9385;DHT22;4732;49.340;10.886;2023-09-30T03:16:41;16.30;99.90
9385;DHT22;4732;49.340;10.886;2023-09-30T03:19:07;16.00;99.90
9385;DHT22;4732;49.340;10.886;2023-09-30T03:21:37;16.00;99.90
9385;DHT22;4732;49.340;10.886;2023-09-30T03:24:06;15.70;99.90
9385;DHT22;4732;49.340;10.886;2023-09-30T03:26:33;16.00;99.90
9385;DHT22;4732;49.340;10.886;2023-09-30T03:28:59;15.90;99.90
9385;DHT22;4732;49.340;10.886;2023-09-30T03:31:25;15.80;99.90
9385;DHT22;4732;49.340;10.886;2023-09-30T03:33:51;15.80;99.90
9385;DHT22;4732;49.340;10.886;2023-09-30T03:36:20;15.40;99.90
9385;DHT22;4732;49.340;10.886;2023-09-30T03:38:46;15.70;99.90
9385;DHT22;4732;49.340;10.886;2023-09-30T03:41:11;15.60;99.90
9385;DHT22;4732;49.340;10.886;2023-09-30T03:43:39;15.50;99.90
9385;DHT22;4732;49.340;10.886;2023-09-30T03:46:07;15.40;99.90
9385;DHT22;4732;49.340;10.886;2023-09-30T03:48:33;15.40;99.90
9385;DHT22;4732;49.340;10.886;2023-09-30T03:51:13;15.40;99.90
9385;DHT22;4732;49.340;10.886;2023-09-30T03:53:43;15.40;99.90
9385;DHT22;4732;49.340;10.886;2023-09-30T03:56:09;15.30;99.90
9385;DHT22;4732;49.340;10.886;2023-09-30T03:58:40;15.30;99.90
9385;DHT22;4732;49.340;10.886;2023-09-30T04:01:06;15.40;99.90
9385;DHT22;4732;49.340;10.886;2023-09-30T04:03:33;15.20;99.90
9385;DHT22;4732;49.340;10.886;2023-09-30T04:05:59;15.20;99.90
9385;DHT22;4732;49.340;10.886;2023-09-30T04:08:24;15.10;99.90
9385;DHT22;4732;49.340;10.886;2023-09-30T04:10:50;15.10;99.90
9385;DHT22;4732;49.340;10.886;2023-09-30T04:13:15;15.30;99.90
9385;DHT22;4732;49.340;10.886;2023-09-30T04:15:43;14.90;99.90
9385;DHT22;4732;49.340;10.886;2023-09-30T04:18:10;15.00;99.90
9385;DHT22;4732;49.340;10.886;2023-09-30T04:20:37;15.20;99.90
9385;DHT22;4732;49.340;10.886;2023-09-30T04:23:05;14.80;99.90
9385;DHT22;4732;49.340;10.886;2023-09-30T04:25:32;14.90;99.90
9385;DHT22;4732;49.340;10.886;2023-09-30T04:27:57;14.90;99.90
9385;DHT22;4732;49.340;10.886;2023-09-30T04:30:23;15.00;99.90
9385;DHT22;4732;49.340;10.886;2023-09-30T04:32:48;15.00;99.90
9385;DHT22;4732;49.340;10.886;2023-09-30T04:35:14;15.10;99.90
9385;DHT22;4732;49.340;10.886;2023-09-30T04:37:40;14.90;99.90
9385;DHT22;4732;49.340;10.886;2023-09-30T04:40:07;14.80;99.90
9385;DHT22;4732;49.340;10.886;2023-09-30T04:42:36;15.20;99.90
9385;DHT22;4732;49.340;10.886;2023-09-30T04:45:03;15.50;99.90
9385;DHT22;4732;49.340;10.886;2023-09-30T04:47:31;14.90;99.90
9385;DHT22;4732;49.340;10.886;2023-09-30T04:49:57;14.80;99.90
9385;DHT22;4732;49.340;10.886;2023-09-30T04:52:23;14.80;99.90
9385;DHT22;4732;49.340;10.886;2023-09-30T04:54:53;14.70;99.90
9385;DHT22;4732;49.340;10.886;2023-09-30T04:57:18;14.50;99.90
9385;DHT22;4732;49.340;10.886;2023-09-30T04:59:44;14.60;99.90
9385;DHT22;4732;49.340;10.886;2023-09-30T05:19:14;14.20;99.90
9385;DHT22;4732;49.340;10.886;2023-09-30T05:21:40;14.00;99.90
9385;DHT22;4732;49.340;10.886;2023-09-30T05:24:05;14.00;99.90
9385;DHT22;4732;49.340;10.886;2023-09-30T05:26:31;14.30;99.90
9385;DHT22;4732;49.340;10.886;2023-09-30T05:28:58;14.20;99.90
9385;DHT22;4732;49.340;10.886;2023-09-30T05:31:24;14.10;99.90
9385;DHT22;4732;49.340;10.886;2023-09-30T05:33:50;14.10;99.90
9385;DHT22;4732;49.340;10.886;2023-09-30T05:36:16;13.90;99.90
9385;DHT22;4732;49.340;10.886;2023-09-30T05:38:41;14.30;99.90
9385;DHT22;4732;49.340;10.886;2023-09-30T05:41:07;14.10;99.90
9385;DHT22;4732;49.340;10.886;2023-09-30T05:43:33;14.10;99.90
9385;DHT22;4732;49.340;10.886;2023-09-30T05:45:59;14.20;99.90
9385;DHT22;4732;49.340;10.886;2023-09-30T05:48:24;14.20;99.90
9385;DHT22;4732;49.340;10.886;2023-09-30T05:50:50;14.20;99.90
9385;DHT22;4732;49.340;10.886;2023-09-30T05:53:16;14.10;99.90
9385;DHT22;4732;49.340;10.886;2023-09-30T05:55:42;14.00;99.90
9385;DHT22;4732;49.340;10.886;2023-09-30T05:58:14;14.30;99.90
9385;DHT22;4732;49.340;10.886;2023-09-30T06:00:42;14.10;99.90
9385;DHT22;4732;49.340;10.886;2023-09-30T06:03:08;14.20;99.90
9385;DHT22;4732;49.340;10.886;2023-09-30T06:05:34;14.20;99.90
9385;DHT22;4732;49.340;10.886;2023-09-30T06:08:07;14.20;99.90
9385;DHT22;4732;49.340;10.886;2023-09-30T06:10:36;14.10;99.90
9385;DHT22;4732;49.340;10.886;2023-09-30T06:13:04;14.20;99.90
9385;DHT22;4732;49.340;10.886;2023-09-30T06:15:30;14.20;99.90
9385;DHT22;4732;49.340;10.886;2023-09-30T06:17:57;14.30;99.90
9385;DHT22;4732;49.340;10.886;2023-09-30T06:20:23;14.30;99.90
9385;DHT22;4732;49.340;10.886;2023-09-30T06:22:51;14.50;99.90
9385;DHT22;4732;49.340;10.886;2023-09-30T06:25:19;14.40;99.90
9385;DHT22;4732;49.340;10.886;2023-09-30T06:27:47;14.40;99.90
9385;DHT22;4732;49.340;10.886;2023-09-30T06:30:14;14.30;99.90
9385;DHT22;4732;49.340;10.886;2023-09-30T06:32:41;14.40;99.90
9385;DHT22;4732;49.340;10.886;2023-09-30T06:35:07;14.60;99.90
9385;DHT22;4732;49.340;10.886;2023-09-30T06:37:36;14.70;99.90
9385;DHT22;4732;49.340;10.886;2023-09-30T06:40:01;14.60;99.90
9385;DHT22;4732;49.340;10.886;2023-09-30T06:42:30;14.80;99.90
9385;DHT22;4732;49.340;10.886;2023-09-30T06:44:56;14.50;99.90
9385;DHT22;4732;49.340;10.886;2023-09-30T06:47:22;14.80;99.90
9385;DHT22;4732;49.340;10.886;2023-09-30T06:49:49;14.70;99.90
9385;DHT22;4732;49.340;10.886;2023-09-30T06:52:14;14.80;99.90
9385;DHT22;4732;49.340;10.886;2023-09-30T06:54:40;14.70;99.90
9385;DHT22;4732;49.340;10.886;2023-09-30T06:57:05;14.80;99.90
9385;DHT22;4732;49.340;10.886;2023-09-30T06:59:34;14.70;99.90
9385;DHT22;4732;49.340;10.886;2023-09-30T07:01:59;14.90;99.90
9385;DHT22;4732;49.340;10.886;2023-09-30T07:04:25;14.90;99.90
9385;DHT22;4732;49.340;10.886;2023-09-30T07:06:53;14.90;99.90
9385;DHT22;4732;49.340;10.886;2023-09-30T07:09:18;15.00;99.90
9385;DHT22;4732;49.340;10.886;2023-09-30T07:11:45;15.00;99.90
9385;DHT22;4732;49.340;10.886;2023-09-30T07:14:11;15.10;99.90
9385;DHT22;4732;49.340;10.886;2023-09-30T07:16:36;15.10;99.90
9385;DHT22;4732;49.340;10.886;2023-09-30T07:19:02;15.10;99.90
9385;DHT22;4732;49.340;10.886;2023-09-30T07:21:28;15.10;99.90
9385;DHT22;4732;49.340;10.886;2023-09-30T07:23:54;15.10;99.90
9385;DHT22;4732;49.340;10.886;2023-09-30T07:26:24;15.10;99.90
9385;DHT22;4732;49.340;10.886;2023-09-30T07:28:49;15.10;99.90
9385;DHT22;4732;49.340;10.886;2023-09-30T07:31:15;15.40;99.90
9385;DHT22;4732;49.340;10.886;2023-09-30T07:33:40;15.20;99.90
9385;DHT22;4732;49.340;10.886;2023-09-30T07:36:06;15.40;99.90
9385;DHT22;4732;49.340;10.886;2023-09-30T07:38:32;15.40;99.90
9385;DHT22;4732;49.340;10.886;2023-09-30T07:40:57;15.40;99.90
9385;DHT22;4732;49.340;10.886;2023-09-30T07:43:23;15.40;99.90
9385;DHT22;4732;49.340;10.886;2023-09-30T07:45:48;15.50;99.90
9385;DHT22;4732;49.340;10.886;2023-09-30T07:48:14;15.30;99.90
9385;DHT22;4732;49.340;10.886;2023-09-30T07:50:39;15.50;99.90
9385;DHT22;4732;49.340;10.886;2023-09-30T07:53:06;15.50;99.90
9385;DHT22;4732;49.340;10.886;2023-09-30T07:55:31;15.60;99.90
9385;DHT22;4732;49.340;10.886;2023-09-30T07:57:57;15.60;99.90
9385;DHT22;4732;49.340;10.886;2023-09-30T08:00:24;15.60;99.90
9385;DHT22;4732;49.340;10.886;2023-09-30T08:02:50;15.70;99.90
9385;DHT22;4732;49.340;10.886;2023-09-30T08:05:16;15.70;99.90
9385;DHT22;4732;49.340;10.886;2023-09-30T08:07:42;15.80;99.90
9385;DHT22;4732;49.340;10.886;2023-09-30T08:10:08;15.80;99.90
9385;DHT22;4732;49.340;10.886;2023-09-30T08:12:38;16.00;99.90
9385;DHT22;4732;49.340;10.886;2023-09-30T08:15:05;16.00;99.90
9385;DHT22;4732;49.340;10.886;2023-09-30T08:17:31;16.10;99.90
9385;DHT22;4732;49.340;10.886;2023-09-30T08:19:57;16.00;99.90
9385;DHT22;4732;49.340;10.886;2023-09-30T08:22:23;15.90;99.90
9385;DHT22;4732;49.340;10.886;2023-09-30T08:24:53;16.00;99.90
9385;DHT22;4732;49.340;10.886;2023-09-30T08:27:18;16.10;99.90
9385;DHT22;4732;49.340;10.886;2023-09-30T08:29:44;15.90;99.90
9385;DHT22;4732;49.340;10.886;2023-09-30T08:32:10;16.20;99.90
9385;DHT22;4732;49.340;10.886;2023-09-30T08:34:35;16.50;99.90
9385;DHT22;4732;49.340;10.886;2023-09-30T08:37:01;16.30;99.90
9385;DHT22;4732;49.340;10.886;2023-09-30T08:39:27;16.20;99.90
9385;DHT22;4732;49.340;10.886;2023-09-30T08:41:55;18.90;99.90
9385;DHT22;4732;49.340;10.886;2023-09-30T08:44:21;16.90;99.90
9385;DHT22;4732;49.340;10.886;2023-09-30T08:46:47;16.50;99.90
9385;DHT22;4732;49.340;10.886;2023-09-30T08:49:14;16.60;99.90
9385;DHT22;4732;49.340;10.886;2023-09-30T08:51:40;16.60;99.90
9385;DHT22;4732;49.340;10.886;2023-09-30T08:54:06;16.60;99.90
9385;DHT22;4732;49.340;10.886;2023-09-30T08:56:32;16.90;99.90
9385;DHT22;4732;49.340;10.886;2023-09-30T08:59:00;16.70;99.90
9385;DHT22;4732;49.340;10.886;2023-09-30T09:01:30;16.80;99.90
9385;DHT22;4732;49.340;10.886;2023-09-30T09:03:56;17.00;99.90
9385;DHT22;4732;49.340;10.886;2023-09-30T09:06:23;16.90;99.90
9385;DHT22;4732;49.340;10.886;2023-09-30T09:08:49;17.00;99.90
9385;DHT22;4732;49.340;10.886;2023-09-30T09:11:15;17.10;99.90
9385;DHT22;4732;49.340;10.886;2023-09-30T09:13:54;17.10;99.90
9385;DHT22;4732;49.340;10.886;2023-09-30T09:16:24;17.20;99.90
9385;DHT22;4732;49.340;10.886;2023-09-30T09:18:50;17.10;99.90
9385;DHT22;4732;49.340;10.886;2023-09-30T09:21:17;17.50;99.90
9385;DHT22;4732;49.340;10.886;2023-09-30T09:23:44;17.40;99.90
9385;DHT22;4732;49.340;10.886;2023-09-30T09:26:32;17.50;99.90
9385;DHT22;4732;49.340;10.886;2023-09-30T09:29:04;17.50;99.90
9385;DHT22;4732;49.340;10.886;2023-09-30T09:31:34;17.50;99.90
9385;DHT22;4732;49.340;10.886;2023-09-30T09:34:01;17.50;99.90
9385;DHT22;4732;49.340;10.886;2023-09-30T09:36:45;17.40;99.90
9385;DHT22;4732;49.340;10.886;2023-09-30T09:39:13;17.60;99.90
9385;DHT22;4732;49.340;10.886;2023-09-30T09:41:59;18.20;99.90
9385;DHT22;4732;49.340;10.886;2023-09-30T09:44:27;17.80;99.90
9385;DHT22;4732;49.340;10.886;2023-09-30T09:46:52;17.80;99.90
9385;DHT22;4732;49.340;10.886;2023-09-30T09:49:19;17.60;99.90
9385;DHT22;4732;49.340;10.886;2023-09-30T09:51:48;18.00;99.90
9385;DHT22;4732;49.340;10.886;2023-09-30T09:54:15;17.60;99.90
9385;DHT22;4732;49.340;10.886;2023-09-30T09:56:46;17.90;99.90
9385;DHT22;4732;49.340;10.886;2023-09-30T09:59:13;18.20;99.90
9385;DHT22;4732;49.340;10.886;2023-09-30T10:01:40;18.90;99.90
9385;DHT22;4732;49.340;10.886;2023-09-30T10:04:06;18.00;99.90
9385;DHT22;4732;49.340;10.886;2023-09-30T10:06:34;18.20;99.90
9385;DHT22;4732;49.340;10.886;2023-09-30T10:09:08;17.40;99.90
9385;DHT22;4732;49.340;10.886;2023-09-30T10:11:34;18.40;99.90
9385;DHT22;4732;49.340;10.886;2023-09-30T10:14:00;18.60;99.90
9385;DHT22;4732;49.340;10.886;2023-09-30T10:16:47;18.70;99.90
9385;DHT22;4732;49.340;10.886;2023-09-30T10:19:18;18.70;99.90
9385;DHT22;4732;49.340;10.886;2023-09-30T10:25:00;19.10;99.90
9385;DHT22;4732;49.340;10.886;2023-09-30T10:30:06;19.10;99.90
9385;DHT22;4732;49.340;10.886;2023-09-30T10:40:51;18.90;99.90
9385;DHT22;4732;49.340;10.886;2023-09-30T10:43:29;19.20;99.90
9385;DHT22;4732;49.340;10.886;2023-09-30T10:45:58;19.30;99.90
9385;DHT22;4732;49.340;10.886;2023-09-30T10:53:32;19.30;99.90
9385;DHT22;4732;49.340;10.886;2023-09-30T10:55:58;19.10;99.90
9385;DHT22;4732;49.340;10.886;2023-09-30T11:01:13;19.00;99.90
9385;DHT22;4732;49.340;10.886;2023-09-30T11:03:42;19.00;99.90
9385;DHT22;4732;49.340;10.886;2023-09-30T11:06:14;19.20;99.90
9385;DHT22;4732;49.340;10.886;2023-09-30T11:08:45;19.10;99.90
9385;DHT22;4732;49.340;10.886;2023-09-30T11:11:12;18.80;99.90
9385;DHT22;4732;49.340;10.886;2023-09-30T11:13:39;19.30;99.90
9385;DHT22;4732;49.340;10.886;2023-09-30T11:16:05;19.40;99.90
9385;DHT22;4732;49.340;10.886;2023-09-30T11:18:31;19.50;99.90
9385;DHT22;4732;49.340;10.886;2023-09-30T11:21:10;19.70;99.90
9385;DHT22;4732;49.340;10.886;2023-09-30T11:23:38;19.80;99.90
9385;DHT22;4732;49.340;10.886;2023-09-30T11:26:04;20.00;99.90
9385;DHT22;4732;49.340;10.886;2023-09-30T11:28:38;20.20;99.90
9385;DHT22;4732;49.340;10.886;2023-09-30T11:31:08;20.40;99.90
9385;DHT22;4732;49.340;10.886;2023-09-30T11:33:50;20.20;99.90
9385;DHT22;4732;49.340;10.886;2023-09-30T11:36:18;20.40;99.90
9385;DHT22;4732;49.340;10.886;2023-09-30T11:38:45;20.20;99.90
9385;DHT22;4732;49.340;10.886;2023-09-30T11:41:13;20.20;99.90
9385;DHT22;4732;49.340;10.886;2023-09-30T11:43:39;20.60;99.90
9385;DHT22;4732;49.340;10.886;2023-09-30T11:48:31;20.70;99.90
9385;DHT22;4732;49.340;10.886;2023-09-30T11:50:59;20.90;99.90
9385;DHT22;4732;49.340;10.886;2023-09-30T11:53:29;20.90;99.90
9385;DHT22;4732;49.340;10.886;2023-09-30T11:55:57;21.00;99.90
9385;DHT22;4732;49.340;10.886;2023-09-30T11:58:25;21.40;99.90
9385;DHT22;4732;49.340;10.886;2023-09-30T12:00:53;21.60;99.90
9385;DHT22;4732;49.340;10.886;2023-09-30T12:03:19;21.70;99.90
9385;DHT22;4732;49.340;10.886;2023-09-30T12:05:46;21.80;99.90
9385;DHT22;4732;49.340;10.886;2023-09-30T12:08:11;21.80;99.90
9385;DHT22;4732;49.340;10.886;2023-09-30T12:10:37;21.90;99.90
9385;DHT22;4732;49.340;10.886;2023-09-30T12:13:04;21.70;99.90
9385;DHT22;4732;49.340;10.886;2023-09-30T12:15:30;21.70;99.90
9385;DHT22;4732;49.340;10.886;2023-09-30T12:17:55;21.80;99.90
9385;DHT22;4732;49.340;10.886;2023-09-30T12:20:21;21.90;99.90
9385;DHT22;4732;49.340;10.886;2023-09-30T12:22:46;22.20;99.90
9385;DHT22;4732;49.340;10.886;2023-09-30T12:25:12;22.20;99.90
9385;DHT22;4732;49.340;10.886;2023-09-30T12:27:37;22.00;99.90
9385;DHT22;4732;49.340;10.886;2023-09-30T12:30:05;21.90;99.90
9385;DHT22;4732;49.340;10.886;2023-09-30T12:32:32;21.90;99.90
9385;DHT22;4732;49.340;10.886;2023-09-30T12:34:57;21.90;99.90
9385;DHT22;4732;49.340;10.886;2023-09-30T12:37:23;21.80;99.90
9385;DHT22;4732;49.340;10.886;2023-09-30T12:39:49;21.70;99.90
9385;DHT22;4732;49.340;10.886;2023-09-30T12:42:14;22.00;99.90
9385;DHT22;4732;49.340;10.886;2023-09-30T12:44:41;22.10;99.90
9385;DHT22;4732;49.340;10.886;2023-09-30T12:47:06;22.30;99.90
9385;DHT22;4732;49.340;10.886;2023-09-30T12:49:32;22.00;99.90
9385;DHT22;4732;49.340;10.886;2023-09-30T12:51:57;22.10;99.90
9385;DHT22;4732;49.340;10.886;2023-09-30T12:54:24;22.30;99.90
9385;DHT22;4732;49.340;10.886;2023-09-30T12:56:50;22.40;99.90
9385;DHT22;4732;49.340;10.886;2023-09-30T12:59:17;22.20;99.90
9385;DHT22;4732;49.340;10.886;2023-09-30T13:01:49;22.20;99.90
9385;DHT22;4732;49.340;10.886;2023-09-30T13:04:15;22.30;99.90
9385;DHT22;4732;49.340;10.886;2023-09-30T13:06:41;22.40;99.90
9385;DHT22;4732;49.340;10.886;2023-09-30T13:09:06;22.50;99.90
9385;DHT22;4732;49.340;10.886;2023-09-30T13:11:35;22.70;99.90
9385;DHT22;4732;49.340;10.886;2023-09-30T13:14:00;23.00;99.90
9385;DHT22;4732;49.340;10.886;2023-09-30T13:16:26;23.00;99.90
9385;DHT22;4732;49.340;10.886;2023-09-30T13:18:51;23.00;99.90
9385;DHT22;4732;49.340;10.886;2023-09-30T13:21:18;23.10;99.90
9385;DHT22;4732;49.340;10.886;2023-09-30T13:23:43;23.30;99.90
9385;DHT22;4732;49.340;10.886;2023-09-30T13:26:09;23.30;99.90
9385;DHT22;4732;49.340;10.886;2023-09-30T13:28:34;22.80;99.90
9385;DHT22;4732;49.340;10.886;2023-09-30T13:31:00;23.00;99.90
9385;DHT22;4732;49.340;10.886;2023-09-30T13:33:25;23.00;99.90
9385;DHT22;4732;49.340;10.886;2023-09-30T13:35:51;23.00;99.90
9385;DHT22;4732;49.340;10.886;2023-09-30T13:38:17;23.00;99.90
9385;DHT22;4732;49.340;10.886;2023-09-30T13:40:42;22.90;99.90
9385;DHT22;4732;49.340;10.886;2023-09-30T13:43:09;23.10;99.90
9385;DHT22;4732;49.340;10.886;2023-09-30T13:45:34;23.10;99.90
9385;DHT22;4732;49.340;10.886;2023-09-30T13:48:00;23.00;99.90
9385;DHT22;4732;49.340;10.886;2023-09-30T13:50:25;22.90;99.90
9385;DHT22;4732;49.340;10.886;2023-09-30T13:52:51;22.60;99.90
9385;DHT22;4732;49.340;10.886;2023-09-30T13:55:16;21.80;99.90
9385;DHT22;4732;49.340;10.886;2023-09-30T13:57:48;21.80;99.90
9385;DHT22;4732;49.340;10.886;2023-09-30T14:00:14;21.60;99.90
9385;DHT22;4732;49.340;10.886;2023-09-30T14:02:40;21.50;99.90
9385;DHT22;4732;49.340;10.886;2023-09-30T14:05:06;21.40;99.90
9385;DHT22;4732;49.340;10.886;2023-09-30T14:07:35;21.50;99.90
9385;DHT22;4732;49.340;10.886;2023-09-30T14:10:02;21.60;99.90
9385;DHT22;4732;49.340;10.886;2023-09-30T14:12:29;21.90;99.90
9385;DHT22;4732;49.340;10.886;2023-09-30T14:14:55;21.70;99.90
9385;DHT22;4732;49.340;10.886;2023-09-30T14:17:20;21.80;99.90
9385;DHT22;4732;49.340;10.886;2023-09-30T14:19:46;21.70;99.90
9385;DHT22;4732;49.340;10.886;2023-09-30T14:22:11;21.60;99.90
9385;DHT22;4732;49.340;10.886;2023-09-30T14:24:37;21.60;99.90
9385;DHT22;4732;49.340;10.886;2023-09-30T14:27:04;21.50;99.90
9385;DHT22;4732;49.340;10.886;2023-09-30T14:29:30;21.50;99.90
9385;DHT22;4732;49.340;10.886;2023-09-30T14:31:56;21.10;99.90
9385;DHT22;4732;49.340;10.886;2023-09-30T14:34:23;20.90;99.90
9385;DHT22;4732;49.340;10.886;2023-09-30T14:36:48;21.00;99.90
9385;DHT22;4732;49.340;10.886;2023-09-30T14:39:14;20.90;99.90
9385;DHT22;4732;49.340;10.886;2023-09-30T14:41:44;21.00;99.90
9385;DHT22;4732;49.340;10.886;2023-09-30T14:44:09;21.00;99.90
9385;DHT22;4732;49.340;10.886;2023-09-30T14:46:40;21.20;99.90
9385;DHT22;4732;49.340;10.886;2023-09-30T14:49:06;21.40;99.90
9385;DHT22;4732;49.340;10.886;2023-09-30T14:51:32;21.30;99.90
9385;DHT22;4732;49.340;10.886;2023-09-30T14:53:57;21.20;99.90
9385;DHT22;4732;49.340;10.886;2023-09-30T14:56:23;21.10;99.90
9385;DHT22;4732;49.340;10.886;2023-09-30T14:58:49;21.00;99.90
9385;DHT22;4732;49.340;10.886;2023-09-30T15:01:14;21.00;99.90
9385;DHT22;4732;49.340;10.886;2023-09-30T15:03:40;21.20;99.90
9385;DHT22;4732;49.340;10.886;2023-09-30T15:06:06;21.40;99.90
9385;DHT22;4732;49.340;10.886;2023-09-30T15:08:32;21.40;99.90
9385;DHT22;4732;49.340;10.886;2023-09-30T15:11:01;21.50;99.90
9385;DHT22;4732;49.340;10.886;2023-09-30T15:13:28;21.40;99.90
9385;DHT22;4732;49.340;10.886;2023-09-30T15:15:54;21.30;99.90
9385;DHT22;4732;49.340;10.886;2023-09-30T15:18:20;21.20;99.90
9385;DHT22;4732;49.340;10.886;2023-09-30T15:20:45;21.20;99.90
9385;DHT22;4732;49.340;10.886;2023-09-30T15:23:13;21.00;99.90
9385;DHT22;4732;49.340;10.886;2023-09-30T15:25:42;20.90;99.90
9385;DHT22;4732;49.340;10.886;2023-09-30T15:28:09;20.70;99.90
9385;DHT22;4732;49.340;10.886;2023-09-30T15:30:35;20.50;99.90
9385;DHT22;4732;49.340;10.886;2023-09-30T15:33:01;20.40;99.90
9385;DHT22;4732;49.340;10.886;2023-09-30T15:35:28;20.30;99.90
9385;DHT22;4732;49.340;10.886;2023-09-30T15:37:53;20.10;99.90
9385;DHT22;4732;49.340;10.886;2023-09-30T15:40:19;20.00;99.90
9385;DHT22;4732;49.340;10.886;2023-09-30T15:42:44;19.90;99.90
9385;DHT22;4732;49.340;10.886;2023-09-30T15:45:11;19.70;99.90
9385;DHT22;4732;49.340;10.886;2023-09-30T15:47:38;19.70;99.90
9385;DHT22;4732;49.340;10.886;2023-09-30T15:50:05;19.50;99.90
9385;DHT22;4732;49.340;10.886;2023-09-30T15:52:31;19.50;99.90
9385;DHT22;4732;49.340;10.886;2023-09-30T15:54:56;19.40;99.90
9385;DHT22;4732;49.340;10.886;2023-09-30T15:57:25;19.20;99.90
9385;DHT22;4732;49.340;10.886;2023-09-30T15:59:50;19.20;99.90
9385;DHT22;4732;49.340;10.886;2023-09-30T16:02:16;19.00;99.90
9385;DHT22;4732;49.340;10.886;2023-09-30T16:04:41;18.80;99.90
9385;DHT22;4732;49.340;10.886;2023-09-30T16:09:34;18.50;99.90
9385;DHT22;4732;49.340;10.886;2023-09-30T16:12:00;18.40;99.90
9385;DHT22;4732;49.340;10.886;2023-09-30T16:14:27;18.30;99.90
9385;DHT22;4732;49.340;10.886;2023-09-30T16:16:53;18.10;99.90
9385;DHT22;4732;49.340;10.886;2023-09-30T16:19:20;18.00;99.90
9385;DHT22;4732;49.340;10.886;2023-09-30T16:21:46;17.90;99.90
9385;DHT22;4732;49.340;10.886;2023-09-30T16:24:11;16.80;99.90
9385;DHT22;4732;49.340;10.886;2023-09-30T16:26:37;17.50;99.90
9385;DHT22;4732;49.340;10.886;2023-09-30T16:31:29;17.10;99.90
9385;DHT22;4732;49.340;10.886;2023-09-30T16:33:54;17.00;99.90
9385;DHT22;4732;49.340;10.886;2023-09-30T16:36:20;16.80;99.90
9385;DHT22;4732;49.340;10.886;2023-09-30T16:38:45;16.70;99.90
9385;DHT22;4732;49.340;10.886;2023-09-30T16:41:11;16.60;99.90
9385;DHT22;4732;49.340;10.886;2023-09-30T16:43:37;16.60;99.90
9385;DHT22;4732;49.340;10.886;2023-09-30T16:46:04;16.50;99.90
9385;DHT22;4732;49.340;10.886;2023-09-30T16:48:30;16.40;99.90
9385;DHT22;4732;49.340;10.886;2023-09-30T16:50:56;16.40;99.90
9385;DHT22;4732;49.340;10.886;2023-09-30T16:53:21;16.40;99.90
9385;DHT22;4732;49.340;10.886;2023-09-30T16:55:47;16.20;99.90
9385;DHT22;4732;49.340;10.886;2023-09-30T16:58:13;16.10;99.90
9385;DHT22;4732;49.340;10.886;2023-09-30T17:00:39;15.90;99.90
9385;DHT22;4732;49.340;10.886;2023-09-30T17:03:04;15.80;99.90
9385;DHT22;4732;49.340;10.886;2023-09-30T17:05:34;15.70;99.90
9385;DHT22;4732;49.340;10.886;2023-09-30T17:08:00;15.60;99.90
9385;DHT22;4732;49.340;10.886;2023-09-30T17:10:25;15.60;99.90
9385;DHT22;4732;49.340;10.886;2023-09-30T17:12:51;15.50;99.90
9385;DHT22;4732;49.340;10.886;2023-09-30T17:15:16;15.40;99.90
9385;DHT22;4732;49.340;10.886;2023-09-30T17:17:42;15.40;99.90
9385;DHT22;4732;49.340;10.886;2023-09-30T17:20:08;15.40;99.90
9385;DHT22;4732;49.340;10.886;2023-09-30T17:22:34;15.10;99.90
9385;DHT22;4732;49.340;10.886;2023-09-30T17:25:00;15.00;99.90
9385;DHT22;4732;49.340;10.886;2023-09-30T17:27:27;14.90;99.90
9385;DHT22;4732;49.340;10.886;2023-09-30T17:29:52;14.80;99.90
9385;DHT22;4732;49.340;10.886;2023-09-30T17:32:18;14.70;99.90
9385;DHT22;4732;49.340;10.886;2023-09-30T17:34:46;14.70;99.90
9385;DHT22;4732;49.340;10.886;2023-09-30T17:37:11;14.70;99.90
9385;DHT22;4732;49.340;10.886;2023-09-30T17:39:40;14.60;99.90
9385;DHT22;4732;49.340;10.886;2023-09-30T17:42:07;14.60;99.90
9385;DHT22;4732;49.340;10.886;2023-09-30T17:44:33;14.50;99.90
9385;DHT22;4732;49.340;10.886;2023-09-30T17:46:58;14.40;99.90
9385;DHT22;4732;49.340;10.886;2023-09-30T17:49:24;14.30;99.90
9385;DHT22;4732;49.340;10.886;2023-09-30T17:51:49;14.10;99.90
9385;DHT22;4732;49.340;10.886;2023-09-30T17:54:15;14.20;99.90
9385;DHT22;4732;49.340;10.886;2023-09-30T17:56:40;14.10;99.90
9385;DHT22;4732;49.340;10.886;2023-09-30T17:59:07;14.00;99.90
9385;DHT22;4732;49.340;10.886;2023-09-30T18:01:32;13.90;99.90
9385;DHT22;4732;49.340;10.886;2023-09-30T18:03:58;13.90;99.90
9385;DHT22;4732;49.340;10.886;2023-09-30T18:06:24;13.90;99.90
9385;DHT22;4732;49.340;10.886;2023-09-30T18:08:49;13.80;99.90
9385;DHT22;4732;49.340;10.886;2023-09-30T18:11:15;13.70;99.90
9385;DHT22;4732;49.340;10.886;2023-09-30T18:13:42;13.60;99.90
9385;DHT22;4732;49.340;10.886;2023-09-30T18:16:08;13.40;99.90
9385;DHT22;4732;49.340;10.886;2023-09-30T18:18:35;13.40;99.90
9385;DHT22;4732;49.340;10.886;2023-09-30T18:21:01;13.40;99.90
9385;DHT22;4732;49.340;10.886;2023-09-30T18:23:26;13.20;99.90
9385;DHT22;4732;49.340;10.886;2023-09-30T18:25:52;13.20;99.90
9385;DHT22;4732;49.340;10.886;2023-09-30T18:28:17;13.10;99.90
9385;DHT22;4732;49.340;10.886;2023-09-30T18:30:44;13.10;99.90
9385;DHT22;4732;49.340;10.886;2023-09-30T18:33:11;13.10;99.90
9385;DHT22;4732;49.340;10.886;2023-09-30T18:35:40;13.10;99.90
9385;DHT22;4732;49.340;10.886;2023-09-30T18:38:07;13.10;99.90
9385;DHT22;4732;49.340;10.886;2023-09-30T18:40:34;13.10;99.90
9385;DHT22;4732;49.340;10.886;2023-09-30T18:43:04;13.10;99.90
9385;DHT22;4732;49.340;10.886;2023-09-30T18:48:27;12.90;99.90
9385;DHT22;4732;49.340;10.886;2023-09-30T18:50:53;12.80;99.90
9385;DHT22;4732;49.340;10.886;2023-09-30T18:53:18;12.70;99.90
9385;DHT22;4732;49.340;10.886;2023-09-30T18:55:45;12.70;99.90
9385;DHT22;4732;49.340;10.886;2023-09-30T18:58:14;12.70;99.90
9385;DHT22;4732;49.340;10.886;2023-09-30T19:00:41;12.60;99.90
9385;DHT22;4732;49.340;10.886;2023-09-30T19:03:11;12.70;99.90
9385;DHT22;4732;49.340;10.886;2023-09-30T19:05:38;12.70;99.90
9385;DHT22;4732;49.340;10.886;2023-09-30T19:08:05;12.70;99.90
9385;DHT22;4732;49.340;10.886;2023-09-30T19:10:31;12.50;99.90
9385;DHT22;4732;49.340;10.886;2023-09-30T19:12:56;12.40;99.90
9385;DHT22;4732;49.340;10.886;2023-09-30T19:15:23;12.40;99.90
9385;DHT22;4732;49.340;10.886;2023-09-30T19:17:51;12.40;99.90
9385;DHT22;4732;49.340;10.886;2023-09-30T19:20:17;12.40;99.90
9385;DHT22;4732;49.340;10.886;2023-09-30T19:22:47;12.40;99.90
9385;DHT22;4732;49.340;10.886;2023-09-30T19:25:12;12.40;99.90
9385;DHT22;4732;49.340;10.886;2023-09-30T19:27:38;12.40;99.90
9385;DHT22;4732;49.340;10.886;2023-09-30T19:30:04;12.30;99.90
9385;DHT22;4732;49.340;10.886;2023-09-30T19:32:31;12.30;99.90
9385;DHT22;4732;49.340;10.886;2023-09-30T19:34:59;12.20;99.90